sensor_id;sensor_type;location;lat;lon;timestamp;P1;durP1;ratioP1;P2;durP2;ratioP2
77214;SDS011;66210;53.282;9.864;2023-04-25T00:00:52;9.50;;;4.63;;
77214;SDS011;66210;53.282;9.864;2023-04-25T00:03:19;7.75;;;4.65;;
77214;SDS011;66210;53.282;9.864;2023-04-25T00:05:47;8.13;;;4.75;;
77214;SDS011;66210;53.282;9.864;2023-04-25T00:08:15;11.75;;;4.95;;
77214;SDS011;66210;53.282;9.864;2023-04-25T00:10:42;12.90;;;5.53;;
77214;SDS011;66210;53.282;9.864;2023-04-25T00:13:08;8.65;;;5.53;;
77214;SDS011;66210;53.282;9.864;2023-04-25T00:15:37;13.23;;;5.53;;
77214;SDS011;66210;53.282;9.864;2023-04-25T00:18:05;9.90;;;5.72;;
77214;SDS011;66210;53.282;9.864;2023-04-25T00:20:32;11.93;;;5.25;;
77214;SDS011;66210;53.282;9.864;2023-04-25T00:22:59;9.15;;;4.78;;
77214;SDS011;66210;53.282;9.864;2023-04-25T00:25:26;7.57;;;4.35;;
77214;SDS011;66210;53.282;9.864;2023-04-25T00:27:53;6.85;;;4.63;;
77214;SDS011;66210;53.282;9.864;2023-04-25T00:30:19;6.80;;;3.88;;
77214;SDS011;66210;53.282;9.864;2023-04-25T00:32:46;6.20;;;3.85;;
77214;SDS011;66210;53.282;9.864;2023-04-25T00:35:13;8.07;;;3.42;;
77214;SDS011;66210;53.282;9.864;2023-04-25T00:37:39;5.25;;;2.47;;
77214;SDS011;66210;53.282;9.864;2023-04-25T00:40:06;4.97;;;3.00;;
77214;SDS011;66210;53.282;9.864;2023-04-25T00:42:34;7.97;;;2.90;;
77214;SDS011;66210;53.282;9.864;2023-04-25T00:45:02;8.25;;;2.65;;
77214;SDS011;66210;53.282;9.864;2023-04-25T00:47:32;4.85;;;2.42;;
77214;SDS011;66210;53.282;9.864;2023-04-25T00:49:59;9.45;;;3.40;;
77214;SDS011;66210;53.282;9.864;2023-04-25T00:52:26;14.55;;;3.00;;
77214;SDS011;66210;53.282;9.864;2023-04-25T00:54:53;17.80;;;3.20;;
77214;SDS011;66210;53.282;9.864;2023-04-25T00:57:19;12.23;;;2.95;;
77214;SDS011;66210;53.282;9.864;2023-04-25T00:59:46;14.57;;;3.13;;
77214;SDS011;66210;53.282;9.864;2023-04-25T01:02:13;9.77;;;3.03;;
77214;SDS011;66210;53.282;9.864;2023-04-25T01:04:40;13.43;;;3.05;;
77214;SDS011;66210;53.282;9.864;2023-04-25T01:07:07;10.13;;;2.65;;
77214;SDS011;66210;53.282;9.864;2023-04-25T01:09:35;17.95;;;2.97;;
77214;SDS011;66210;53.282;9.864;2023-04-25T01:12:02;19.50;;;3.38;;
77214;SDS011;66210;53.282;9.864;2023-04-25T01:14:29;21.80;;;3.75;;
77214;SDS011;66210;53.282;9.864;2023-04-25T01:16:56;21.02;;;3.55;;
77214;SDS011;66210;53.282;9.864;2023-04-25T01:19:23;13.85;;;3.55;;
77214;SDS011;66210;53.282;9.864;2023-04-25T01:21:51;16.15;;;2.92;;
77214;SDS011;66210;53.282;9.864;2023-04-25T01:24:18;17.50;;;3.83;;
77214;SDS011;66210;53.282;9.864;2023-04-25T01:26:45;19.95;;;3.08;;
77214;SDS011;66210;53.282;9.864;2023-04-25T01:29:17;17.60;;;3.03;;
77214;SDS011;66210;53.282;9.864;2023-04-25T01:31:44;14.48;;;2.95;;
77214;SDS011;66210;53.282;9.864;2023-04-25T01:34:11;16.52;;;3.05;;
77214;SDS011;66210;53.282;9.864;2023-04-25T01:36:38;12.70;;;3.03;;
77214;SDS011;66210;53.282;9.864;2023-04-25T01:39:05;28.42;;;4.38;;
77214;SDS011;66210;53.282;9.864;2023-04-25T01:41:32;23.25;;;3.50;;
77214;SDS011;66210;53.282;9.864;2023-04-25T01:44:01;25.13;;;3.45;;
77214;SDS011;66210;53.282;9.864;2023-04-25T01:46:29;18.95;;;2.97;;
77214;SDS011;66210;53.282;9.864;2023-04-25T01:48:57;20.55;;;5.82;;
77214;SDS011;66210;53.282;9.864;2023-04-25T01:51:23;16.10;;;3.22;;
77214;SDS011;66210;53.282;9.864;2023-04-25T01:53:50;21.48;;;3.20;;
77214;SDS011;66210;53.282;9.864;2023-04-25T01:56:17;14.35;;;3.47;;
77214;SDS011;66210;53.282;9.864;2023-04-25T01:58:45;22.50;;;3.70;;
77214;SDS011;66210;53.282;9.864;2023-04-25T02:01:11;17.55;;;3.45;;
77214;SDS011;66210;53.282;9.864;2023-04-25T02:03:38;19.58;;;3.40;;
77214;SDS011;66210;53.282;9.864;2023-04-25T02:06:06;17.75;;;3.38;;
77214;SDS011;66210;53.282;9.864;2023-04-25T02:08:32;20.13;;;4.00;;
77214;SDS011;66210;53.282;9.864;2023-04-25T02:10:59;19.45;;;3.20;;
77214;SDS011;66210;53.282;9.864;2023-04-25T02:13:26;17.80;;;3.55;;
77214;SDS011;66210;53.282;9.864;2023-04-25T02:15:53;24.88;;;4.40;;
77214;SDS011;66210;53.282;9.864;2023-04-25T02:22:32;18.13;;;3.33;;
77214;SDS011;66210;53.282;9.864;2023-04-25T02:25:00;16.58;;;3.58;;
77214;SDS011;66210;53.282;9.864;2023-04-25T02:27:27;11.73;;;3.28;;
77214;SDS011;66210;53.282;9.864;2023-04-25T02:29:54;19.63;;;3.70;;
77214;SDS011;66210;53.282;9.864;2023-04-25T02:32:20;20.38;;;3.88;;
77214;SDS011;66210;53.282;9.864;2023-04-25T02:34:47;23.75;;;4.57;;
77214;SDS011;66210;53.282;9.864;2023-04-25T02:37:14;18.92;;;4.00;;
77214;SDS011;66210;53.282;9.864;2023-04-25T02:39:41;16.27;;;3.42;;
77214;SDS011;66210;53.282;9.864;2023-04-25T02:42:08;23.55;;;3.85;;
77214;SDS011;66210;53.282;9.864;2023-04-25T02:44:34;22.52;;;3.65;;
77214;SDS011;66210;53.282;9.864;2023-04-25T02:47:01;25.70;;;4.28;;
77214;SDS011;66210;53.282;9.864;2023-04-25T02:49:28;24.80;;;4.05;;
77214;SDS011;66210;53.282;9.864;2023-04-25T02:51:55;16.88;;;4.00;;
77214;SDS011;66210;53.282;9.864;2023-04-25T02:54:21;17.30;;;3.67;;
77214;SDS011;66210;53.282;9.864;2023-04-25T02:56:48;23.10;;;4.72;;
77214;SDS011;66210;53.282;9.864;2023-04-25T02:59:15;18.13;;;3.80;;
77214;SDS011;66210;53.282;9.864;2023-04-25T03:01:42;15.65;;;3.30;;
77214;SDS011;66210;53.282;9.864;2023-04-25T03:04:09;17.10;;;4.20;;
77214;SDS011;66210;53.282;9.864;2023-04-25T03:06:36;20.65;;;4.32;;
77214;SDS011;66210;53.282;9.864;2023-04-25T03:09:02;14.05;;;3.28;;
77214;SDS011;66210;53.282;9.864;2023-04-25T03:11:30;20.48;;;3.90;;
77214;SDS011;66210;53.282;9.864;2023-04-25T03:13:57;13.25;;;2.90;;
77214;SDS011;66210;53.282;9.864;2023-04-25T03:16:23;13.18;;;2.78;;
77214;SDS011;66210;53.282;9.864;2023-04-25T03:18:50;16.75;;;3.70;;
77214;SDS011;66210;53.282;9.864;2023-04-25T03:21:17;15.60;;;3.15;;
77214;SDS011;66210;53.282;9.864;2023-04-25T03:23:44;18.27;;;3.58;;
77214;SDS011;66210;53.282;9.864;2023-04-25T03:26:11;16.60;;;3.47;;
77214;SDS011;66210;53.282;9.864;2023-04-25T03:28:38;16.65;;;3.38;;
77214;SDS011;66210;53.282;9.864;2023-04-25T03:31:06;28.35;;;3.58;;
77214;SDS011;66210;53.282;9.864;2023-04-25T03:33:33;21.40;;;3.95;;
77214;SDS011;66210;53.282;9.864;2023-04-25T03:35:59;24.20;;;3.90;;
77214;SDS011;66210;53.282;9.864;2023-04-25T03:38:26;14.55;;;3.65;;
77214;SDS011;66210;53.282;9.864;2023-04-25T03:40:53;15.95;;;3.25;;
77214;SDS011;66210;53.282;9.864;2023-04-25T03:43:20;18.10;;;3.15;;
77214;SDS011;66210;53.282;9.864;2023-04-25T03:45:47;18.17;;;3.22;;
77214;SDS011;66210;53.282;9.864;2023-04-25T03:48:14;8.75;;;2.53;;
77214;SDS011;66210;53.282;9.864;2023-04-25T03:50:41;19.77;;;3.50;;
77214;SDS011;66210;53.282;9.864;2023-04-25T03:53:08;17.25;;;3.45;;
77214;SDS011;66210;53.282;9.864;2023-04-25T03:55:34;14.75;;;3.40;;
77214;SDS011;66210;53.282;9.864;2023-04-25T03:58:01;14.65;;;3.40;;
77214;SDS011;66210;53.282;9.864;2023-04-25T04:00:28;12.07;;;3.17;;
77214;SDS011;66210;53.282;9.864;2023-04-25T04:02:55;11.63;;;3.13;;
77214;SDS011;66210;53.282;9.864;2023-04-25T04:05:22;12.55;;;3.28;;
77214;SDS011;66210;53.282;9.864;2023-04-25T04:07:49;20.83;;;3.67;;
77214;SDS011;66210;53.282;9.864;2023-04-25T04:10:16;21.52;;;3.53;;
77214;SDS011;66210;53.282;9.864;2023-04-25T04:12:43;9.15;;;2.88;;
77214;SDS011;66210;53.282;9.864;2023-04-25T04:15:10;20.67;;;3.80;;
77214;SDS011;66210;53.282;9.864;2023-04-25T04:17:37;13.55;;;3.00;;
77214;SDS011;66210;53.282;9.864;2023-04-25T04:20:04;15.38;;;3.72;;
77214;SDS011;66210;53.282;9.864;2023-04-25T04:22:32;14.18;;;3.00;;
77214;SDS011;66210;53.282;9.864;2023-04-25T04:24:59;20.65;;;3.35;;
77214;SDS011;66210;53.282;9.864;2023-04-25T04:27:25;18.55;;;3.33;;
77214;SDS011;66210;53.282;9.864;2023-04-25T04:29:52;17.83;;;3.15;;
77214;SDS011;66210;53.282;9.864;2023-04-25T04:32:19;15.25;;;3.05;;
77214;SDS011;66210;53.282;9.864;2023-04-25T04:34:46;18.50;;;3.35;;
77214;SDS011;66210;53.282;9.864;2023-04-25T04:37:13;26.67;;;3.85;;
77214;SDS011;66210;53.282;9.864;2023-04-25T04:39:41;14.43;;;4.00;;
77214;SDS011;66210;53.282;9.864;2023-04-25T04:42:08;14.40;;;3.08;;
77214;SDS011;66210;53.282;9.864;2023-04-25T04:44:35;14.30;;;3.28;;
77214;SDS011;66210;53.282;9.864;2023-04-25T04:47:01;17.90;;;3.25;;
77214;SDS011;66210;53.282;9.864;2023-04-25T04:49:32;11.90;;;2.90;;
77214;SDS011;66210;53.282;9.864;2023-04-25T04:51:59;13.73;;;3.17;;
77214;SDS011;66210;53.282;9.864;2023-04-25T04:54:27;17.63;;;3.42;;
77214;SDS011;66210;53.282;9.864;2023-04-25T04:56:53;11.13;;;3.10;;
77214;SDS011;66210;53.282;9.864;2023-04-25T04:59:21;15.02;;;3.15;;
77214;SDS011;66210;53.282;9.864;2023-04-25T05:01:47;15.13;;;3.05;;
77214;SDS011;66210;53.282;9.864;2023-04-25T05:04:14;12.55;;;2.70;;
77214;SDS011;66210;53.282;9.864;2023-04-25T05:06:41;19.17;;;2.78;;
77214;SDS011;66210;53.282;9.864;2023-04-25T05:09:08;18.00;;;3.53;;
77214;SDS011;66210;53.282;9.864;2023-04-25T05:11:34;20.27;;;3.00;;
77214;SDS011;66210;53.282;9.864;2023-04-25T05:14:01;17.15;;;2.92;;
77214;SDS011;66210;53.282;9.864;2023-04-25T05:16:28;14.65;;;3.42;;
77214;SDS011;66210;53.282;9.864;2023-04-25T05:18:55;19.27;;;3.28;;
77214;SDS011;66210;53.282;9.864;2023-04-25T05:21:21;17.73;;;3.55;;
77214;SDS011;66210;53.282;9.864;2023-04-25T05:23:49;11.30;;;2.75;;
77214;SDS011;66210;53.282;9.864;2023-04-25T05:26:16;9.15;;;2.40;;
77214;SDS011;66210;53.282;9.864;2023-04-25T05:28:42;14.73;;;3.15;;
77214;SDS011;66210;53.282;9.864;2023-04-25T05:31:09;16.42;;;2.65;;
77214;SDS011;66210;53.282;9.864;2023-04-25T05:33:36;15.95;;;2.47;;
77214;SDS011;66210;53.282;9.864;2023-04-25T05:36:03;18.83;;;3.00;;
77214;SDS011;66210;53.282;9.864;2023-04-25T05:38:30;14.30;;;3.10;;
77214;SDS011;66210;53.282;9.864;2023-04-25T05:43:27;9.85;;;2.80;;
77214;SDS011;66210;53.282;9.864;2023-04-25T05:46:13;16.17;;;2.88;;
77214;SDS011;66210;53.282;9.864;2023-04-25T05:48:40;14.65;;;3.25;;
77214;SDS011;66210;53.282;9.864;2023-04-25T05:51:06;13.95;;;3.22;;
77214;SDS011;66210;53.282;9.864;2023-04-25T05:53:33;11.40;;;2.70;;
77214;SDS011;66210;53.282;9.864;2023-04-25T05:56:00;17.88;;;3.45;;
77214;SDS011;66210;53.282;9.864;2023-04-25T05:58:27;14.13;;;2.33;;
77214;SDS011;66210;53.282;9.864;2023-04-25T06:00:55;16.40;;;3.22;;
77214;SDS011;66210;53.282;9.864;2023-04-25T06:03:21;9.02;;;2.67;;
77214;SDS011;66210;53.282;9.864;2023-04-25T06:05:49;15.77;;;2.65;;
77214;SDS011;66210;53.282;9.864;2023-04-25T06:08:16;14.80;;;3.42;;
77214;SDS011;66210;53.282;9.864;2023-04-25T06:10:43;17.77;;;2.83;;
77214;SDS011;66210;53.282;9.864;2023-04-25T06:13:10;12.75;;;3.30;;
77214;SDS011;66210;53.282;9.864;2023-04-25T06:15:37;12.85;;;2.90;;
77214;SDS011;66210;53.282;9.864;2023-04-25T06:18:03;13.13;;;3.20;;
77214;SDS011;66210;53.282;9.864;2023-04-25T06:20:30;14.32;;;2.90;;
77214;SDS011;66210;53.282;9.864;2023-04-25T06:22:57;17.10;;;2.80;;
77214;SDS011;66210;53.282;9.864;2023-04-25T06:25:24;14.65;;;3.35;;
77214;SDS011;66210;53.282;9.864;2023-04-25T06:27:50;17.42;;;2.50;;
77214;SDS011;66210;53.282;9.864;2023-04-25T06:30:17;17.85;;;2.70;;
77214;SDS011;66210;53.282;9.864;2023-04-25T06:32:48;19.92;;;2.75;;
77214;SDS011;66210;53.282;9.864;2023-04-25T06:35:15;18.67;;;2.90;;
77214;SDS011;66210;53.282;9.864;2023-04-25T06:37:42;15.25;;;3.00;;
77214;SDS011;66210;53.282;9.864;2023-04-25T06:40:09;23.95;;;3.13;;
77214;SDS011;66210;53.282;9.864;2023-04-25T06:42:36;15.77;;;2.90;;
77214;SDS011;66210;53.282;9.864;2023-04-25T06:45:03;18.52;;;2.47;;
77214;SDS011;66210;53.282;9.864;2023-04-25T06:47:30;20.20;;;3.40;;
77214;SDS011;66210;53.282;9.864;2023-04-25T06:49:56;16.47;;;2.50;;
77214;SDS011;66210;53.282;9.864;2023-04-25T06:52:23;14.15;;;2.40;;
77214;SDS011;66210;53.282;9.864;2023-04-25T06:54:50;13.23;;;2.25;;
77214;SDS011;66210;53.282;9.864;2023-04-25T06:57:16;12.50;;;3.20;;
77214;SDS011;66210;53.282;9.864;2023-04-25T06:59:43;17.08;;;2.95;;
77214;SDS011;66210;53.282;9.864;2023-04-25T07:02:10;11.13;;;2.72;;
77214;SDS011;66210;53.282;9.864;2023-04-25T07:04:37;10.50;;;2.42;;
77214;SDS011;66210;53.282;9.864;2023-04-25T07:07:04;9.82;;;2.13;;
77214;SDS011;66210;53.282;9.864;2023-04-25T07:09:31;16.88;;;2.97;;
77214;SDS011;66210;53.282;9.864;2023-04-25T07:12:00;7.55;;;2.33;;
77214;SDS011;66210;53.282;9.864;2023-04-25T07:14:28;6.50;;;1.95;;
77214;SDS011;66210;53.282;9.864;2023-04-25T07:16:54;9.70;;;2.63;;
77214;SDS011;66210;53.282;9.864;2023-04-25T07:19:23;7.80;;;2.42;;
77214;SDS011;66210;53.282;9.864;2023-04-25T07:21:53;6.00;;;2.10;;
77214;SDS011;66210;53.282;9.864;2023-04-25T07:24:20;7.47;;;1.75;;
77214;SDS011;66210;53.282;9.864;2023-04-25T07:26:46;7.10;;;1.73;;
77214;SDS011;66210;53.282;9.864;2023-04-25T07:29:13;8.65;;;2.35;;
77214;SDS011;66210;53.282;9.864;2023-04-25T07:31:40;9.60;;;1.90;;
77214;SDS011;66210;53.282;9.864;2023-04-25T07:34:07;8.00;;;2.15;;
77214;SDS011;66210;53.282;9.864;2023-04-25T07:36:34;4.68;;;1.77;;
77214;SDS011;66210;53.282;9.864;2023-04-25T07:39:00;7.65;;;2.20;;
77214;SDS011;66210;53.282;9.864;2023-04-25T07:41:27;8.02;;;2.65;;
77214;SDS011;66210;53.282;9.864;2023-04-25T07:43:54;8.38;;;1.98;;
77214;SDS011;66210;53.282;9.864;2023-04-25T07:46:24;9.70;;;1.83;;
77214;SDS011;66210;53.282;9.864;2023-04-25T07:48:51;5.53;;;1.73;;
77214;SDS011;66210;53.282;9.864;2023-04-25T07:51:18;11.75;;;1.83;;
77214;SDS011;66210;53.282;9.864;2023-04-25T07:53:46;12.48;;;1.95;;
77214;SDS011;66210;53.282;9.864;2023-04-25T07:56:16;7.60;;;1.88;;
77214;SDS011;66210;53.282;9.864;2023-04-25T07:58:42;9.18;;;2.15;;
77214;SDS011;66210;53.282;9.864;2023-04-25T08:01:09;8.30;;;2.10;;
77214;SDS011;66210;53.282;9.864;2023-04-25T08:03:36;7.88;;;1.98;;
77214;SDS011;66210;53.282;9.864;2023-04-25T08:06:03;7.72;;;1.90;;
77214;SDS011;66210;53.282;9.864;2023-04-25T08:08:33;8.32;;;1.98;;
77214;SDS011;66210;53.282;9.864;2023-04-25T08:11:00;7.47;;;1.70;;
77214;SDS011;66210;53.282;9.864;2023-04-25T08:13:27;8.63;;;1.90;;
77214;SDS011;66210;53.282;9.864;2023-04-25T08:15:53;6.03;;;1.75;;
77214;SDS011;66210;53.282;9.864;2023-04-25T08:18:21;7.38;;;1.90;;
77214;SDS011;66210;53.282;9.864;2023-04-25T08:20:48;9.65;;;1.90;;
77214;SDS011;66210;53.282;9.864;2023-04-25T08:23:14;11.18;;;1.80;;
77214;SDS011;66210;53.282;9.864;2023-04-25T08:25:41;5.80;;;1.70;;
77214;SDS011;66210;53.282;9.864;2023-04-25T08:28:08;5.25;;;1.60;;
77214;SDS011;66210;53.282;9.864;2023-04-25T08:30:35;6.20;;;1.70;;
77214;SDS011;66210;53.282;9.864;2023-04-25T08:33:02;10.40;;;2.17;;
77214;SDS011;66210;53.282;9.864;2023-04-25T08:35:29;8.25;;;1.73;;
77214;SDS011;66210;53.282;9.864;2023-04-25T08:37:56;6.97;;;1.83;;
77214;SDS011;66210;53.282;9.864;2023-04-25T08:40:23;14.63;;;2.42;;
77214;SDS011;66210;53.282;9.864;2023-04-25T08:42:56;162.90;;;10.27;;
77214;SDS011;66210;53.282;9.864;2023-04-25T08:45:24;21.55;;;2.88;;
77214;SDS011;66210;53.282;9.864;2023-04-25T08:47:54;12.88;;;2.00;;
77214;SDS011;66210;53.282;9.864;2023-04-25T08:50:23;8.80;;;2.22;;
77214;SDS011;66210;53.282;9.864;2023-04-25T08:52:51;4.55;;;1.38;;
77214;SDS011;66210;53.282;9.864;2023-04-25T08:55:20;5.55;;;1.20;;
77214;SDS011;66210;53.282;9.864;2023-04-25T08:57:47;4.13;;;1.35;;
77214;SDS011;66210;53.282;9.864;2023-04-25T09:00:15;8.82;;;2.08;;
77214;SDS011;66210;53.282;9.864;2023-04-25T09:02:42;7.30;;;1.70;;
77214;SDS011;66210;53.282;9.864;2023-04-25T09:05:11;10.70;;;1.67;;
77214;SDS011;66210;53.282;9.864;2023-04-25T09:07:39;5.43;;;1.60;;
77214;SDS011;66210;53.282;9.864;2023-04-25T09:10:06;14.38;;;1.85;;
77214;SDS011;66210;53.282;9.864;2023-04-25T09:12:33;10.43;;;1.80;;
77214;SDS011;66210;53.282;9.864;2023-04-25T09:15:08;8.02;;;1.80;;
77214;SDS011;66210;53.282;9.864;2023-04-25T09:17:36;12.23;;;1.90;;
77214;SDS011;66210;53.282;9.864;2023-04-25T09:22:34;7.30;;;1.98;;
77214;SDS011;66210;53.282;9.864;2023-04-25T09:25:02;3.50;;;1.40;;
77214;SDS011;66210;53.282;9.864;2023-04-25T09:50:22;6.30;;;1.33;;
77214;SDS011;66210;53.282;9.864;2023-04-25T09:53:03;7.80;;;1.50;;
77214;SDS011;66210;53.282;9.864;2023-04-25T09:55:33;4.47;;;1.17;;
77214;SDS011;66210;53.282;9.864;2023-04-25T09:58:03;8.32;;;1.55;;
77214;SDS011;66210;53.282;9.864;2023-04-25T10:00:33;4.25;;;1.45;;
77214;SDS011;66210;53.282;9.864;2023-04-25T10:03:01;7.25;;;1.60;;
77214;SDS011;66210;53.282;9.864;2023-04-25T10:05:32;9.13;;;2.10;;
77214;SDS011;66210;53.282;9.864;2023-04-25T10:08:02;7.30;;;2.33;;
77214;SDS011;66210;53.282;9.864;2023-04-25T10:10:30;6.35;;;1.42;;
77214;SDS011;66210;53.282;9.864;2023-04-25T10:13:03;6.03;;;1.75;;
77214;SDS011;66210;53.282;9.864;2023-04-25T10:15:35;6.93;;;1.63;;
77214;SDS011;66210;53.282;9.864;2023-04-25T10:18:27;6.93;;;1.67;;
77214;SDS011;66210;53.282;9.864;2023-04-25T10:20:55;8.60;;;2.50;;
77214;SDS011;66210;53.282;9.864;2023-04-25T10:23:24;7.95;;;1.90;;
77214;SDS011;66210;53.282;9.864;2023-04-25T10:25:52;8.02;;;2.00;;
77214;SDS011;66210;53.282;9.864;2023-04-25T10:28:20;5.85;;;1.65;;
77214;SDS011;66210;53.282;9.864;2023-04-25T10:30:59;5.35;;;1.40;;
77214;SDS011;66210;53.282;9.864;2023-04-25T10:39:03;7.90;;;1.50;;
77214;SDS011;66210;53.282;9.864;2023-04-25T10:41:45;8.10;;;1.70;;
77214;SDS011;66210;53.282;9.864;2023-04-25T10:44:13;10.60;;;1.50;;
77214;SDS011;66210;53.282;9.864;2023-04-25T10:46:41;10.20;;;2.30;;
77214;SDS011;66210;53.282;9.864;2023-04-25T10:49:11;10.55;;;1.83;;
77214;SDS011;66210;53.282;9.864;2023-04-25T10:52:11;8.65;;;2.15;;
77214;SDS011;66210;53.282;9.864;2023-04-25T10:54:46;10.98;;;1.80;;
77214;SDS011;66210;53.282;9.864;2023-04-25T10:57:36;10.23;;;1.92;;
77214;SDS011;66210;53.282;9.864;2023-04-25T11:02:45;8.07;;;2.67;;
77214;SDS011;66210;53.282;9.864;2023-04-25T11:08:10;6.22;;;1.77;;
77214;SDS011;66210;53.282;9.864;2023-04-25T11:10:40;7.65;;;1.42;;
77214;SDS011;66210;53.282;9.864;2023-04-25T11:13:07;6.72;;;2.00;;
77214;SDS011;66210;53.282;9.864;2023-04-25T11:15:34;9.68;;;1.73;;
77214;SDS011;66210;53.282;9.864;2023-04-25T11:18:01;8.98;;;1.80;;
77214;SDS011;66210;53.282;9.864;2023-04-25T11:20:28;10.13;;;2.08;;
77214;SDS011;66210;53.282;9.864;2023-04-25T11:22:57;5.05;;;1.42;;
77214;SDS011;66210;53.282;9.864;2023-04-25T11:25:25;6.75;;;1.42;;
77214;SDS011;66210;53.282;9.864;2023-04-25T11:27:52;8.27;;;1.73;;
77214;SDS011;66210;53.282;9.864;2023-04-25T11:30:24;8.50;;;2.17;;
77214;SDS011;66210;53.282;9.864;2023-04-25T11:32:52;8.00;;;1.70;;
77214;SDS011;66210;53.282;9.864;2023-04-25T11:35:19;5.15;;;1.50;;
77214;SDS011;66210;53.282;9.864;2023-04-25T11:37:47;7.38;;;1.48;;
77214;SDS011;66210;53.282;9.864;2023-04-25T11:40:14;8.98;;;1.63;;
77214;SDS011;66210;53.282;9.864;2023-04-25T11:42:45;12.43;;;2.55;;
77214;SDS011;66210;53.282;9.864;2023-04-25T11:45:13;5.95;;;1.45;;
77214;SDS011;66210;53.282;9.864;2023-04-25T11:47:40;7.18;;;1.30;;
77214;SDS011;66210;53.282;9.864;2023-04-25T11:50:07;9.70;;;2.50;;
77214;SDS011;66210;53.282;9.864;2023-04-25T11:52:41;8.32;;;1.50;;
77214;SDS011;66210;53.282;9.864;2023-04-25T11:55:13;12.43;;;1.75;;
77214;SDS011;66210;53.282;9.864;2023-04-25T11:57:41;6.97;;;1.50;;
77214;SDS011;66210;53.282;9.864;2023-04-25T12:00:11;5.53;;;1.30;;
77214;SDS011;66210;53.282;9.864;2023-04-25T12:02:44;6.13;;;1.20;;
77214;SDS011;66210;53.282;9.864;2023-04-25T12:05:13;9.07;;;1.70;;
77214;SDS011;66210;53.282;9.864;2023-04-25T12:07:47;6.78;;;1.40;;
77214;SDS011;66210;53.282;9.864;2023-04-25T12:10:15;8.23;;;1.60;;
77214;SDS011;66210;53.282;9.864;2023-04-25T12:12:44;5.30;;;1.77;;
77214;SDS011;66210;53.282;9.864;2023-04-25T12:49:33;3.08;;;1.23;;
77214;SDS011;66210;53.282;9.864;2023-04-25T12:52:00;4.05;;;1.17;;
77214;SDS011;66210;53.282;9.864;2023-04-25T12:54:27;7.25;;;1.60;;
77214;SDS011;66210;53.282;9.864;2023-04-25T12:56:53;5.55;;;1.30;;
77214;SDS011;66210;53.282;9.864;2023-04-25T12:59:21;6.32;;;1.20;;
77214;SDS011;66210;53.282;9.864;2023-04-25T13:01:48;4.63;;;1.17;;
77214;SDS011;66210;53.282;9.864;2023-04-25T13:04:15;4.15;;;1.50;;
77214;SDS011;66210;53.282;9.864;2023-04-25T13:06:42;3.22;;;1.23;;
77214;SDS011;66210;53.282;9.864;2023-04-25T13:09:09;9.27;;;1.67;;
77214;SDS011;66210;53.282;9.864;2023-04-25T13:11:36;4.07;;;1.58;;
77214;SDS011;66210;53.282;9.864;2023-04-25T13:14:04;4.57;;;1.40;;
77214;SDS011;66210;53.282;9.864;2023-04-25T13:16:31;6.07;;;1.17;;
77214;SDS011;66210;53.282;9.864;2023-04-25T13:18:58;4.70;;;1.40;;
77214;SDS011;66210;53.282;9.864;2023-04-25T13:21:25;7.45;;;1.50;;
77214;SDS011;66210;53.282;9.864;2023-04-25T13:23:53;5.43;;;1.48;;
77214;SDS011;66210;53.282;9.864;2023-04-25T13:26:20;5.93;;;1.40;;
77214;SDS011;66210;53.282;9.864;2023-04-25T13:28:47;5.70;;;1.48;;
77214;SDS011;66210;53.282;9.864;2023-04-25T14:56:08;7.18;;;1.60;;
77214;SDS011;66210;53.282;9.864;2023-04-25T14:58:35;7.03;;;1.50;;
77214;SDS011;66210;53.282;9.864;2023-04-25T15:01:02;7.28;;;1.60;;
77214;SDS011;66210;53.282;9.864;2023-04-25T15:03:29;4.13;;;1.77;;
77214;SDS011;66210;53.282;9.864;2023-04-25T15:05:56;8.02;;;1.80;;
77214;SDS011;66210;53.282;9.864;2023-04-25T15:08:22;6.10;;;1.08;;
77214;SDS011;66210;53.282;9.864;2023-04-25T15:10:49;2.75;;;0.93;;
77214;SDS011;66210;53.282;9.864;2023-04-25T15:13:17;5.65;;;1.40;;
77214;SDS011;66210;53.282;9.864;2023-04-25T15:15:45;3.17;;;1.33;;
77214;SDS011;66210;53.282;9.864;2023-04-25T15:18:17;5.43;;;1.42;;
77214;SDS011;66210;53.282;9.864;2023-04-25T15:20:48;3.75;;;1.30;;
77214;SDS011;66210;53.282;9.864;2023-04-25T15:23:17;5.38;;;1.20;;
77214;SDS011;66210;53.282;9.864;2023-04-25T15:25:44;5.22;;;1.40;;
77214;SDS011;66210;53.282;9.864;2023-04-25T15:28:11;8.70;;;1.40;;
77214;SDS011;66210;53.282;9.864;2023-04-25T15:30:42;6.10;;;1.70;;
77214;SDS011;66210;53.282;9.864;2023-04-25T15:33:09;5.68;;;1.88;;
77214;SDS011;66210;53.282;9.864;2023-04-25T15:35:36;4.70;;;1.00;;
77214;SDS011;66210;53.282;9.864;2023-04-25T15:38:03;4.97;;;1.40;;
77214;SDS011;66210;53.282;9.864;2023-04-25T15:40:31;4.88;;;1.65;;
77214;SDS011;66210;53.282;9.864;2023-04-25T15:42:57;7.10;;;1.55;;
77214;SDS011;66210;53.282;9.864;2023-04-25T15:45:25;7.43;;;1.67;;
77214;SDS011;66210;53.282;9.864;2023-04-25T15:47:53;10.70;;;1.63;;
77214;SDS011;66210;53.282;9.864;2023-04-25T15:50:21;3.20;;;1.30;;
77214;SDS011;66210;53.282;9.864;2023-04-25T15:52:49;6.07;;;1.80;;
77214;SDS011;66210;53.282;9.864;2023-04-25T15:55:17;10.48;;;1.95;;
77214;SDS011;66210;53.282;9.864;2023-04-25T15:57:47;6.15;;;1.60;;
77214;SDS011;66210;53.282;9.864;2023-04-25T16:00:15;6.30;;;1.88;;
77214;SDS011;66210;53.282;9.864;2023-04-25T16:05:14;5.60;;;1.33;;
77214;SDS011;66210;53.282;9.864;2023-04-25T16:07:42;7.35;;;1.77;;
77214;SDS011;66210;53.282;9.864;2023-04-25T16:10:10;5.22;;;1.55;;
77214;SDS011;66210;53.282;9.864;2023-04-25T16:12:38;6.20;;;1.50;;
77214;SDS011;66210;53.282;9.864;2023-04-25T16:15:06;3.97;;;1.30;;
77214;SDS011;66210;53.282;9.864;2023-04-25T16:17:33;9.75;;;1.77;;
77214;SDS011;66210;53.282;9.864;2023-04-25T16:20:00;9.40;;;1.83;;
77214;SDS011;66210;53.282;9.864;2023-04-25T16:22:36;2.80;;;1.13;;
77214;SDS011;66210;53.282;9.864;2023-04-25T16:25:08;4.65;;;1.40;;
77214;SDS011;66210;53.282;9.864;2023-04-25T16:27:35;8.15;;;1.65;;
77214;SDS011;66210;53.282;9.864;2023-04-25T16:30:05;5.00;;;1.40;;
77214;SDS011;66210;53.282;9.864;2023-04-25T16:32:34;11.20;;;1.67;;
77214;SDS011;66210;53.282;9.864;2023-04-25T16:35:01;7.05;;;1.77;;
77214;SDS011;66210;53.282;9.864;2023-04-25T16:37:28;6.05;;;1.52;;
77214;SDS011;66210;53.282;9.864;2023-04-25T16:39:55;6.25;;;1.50;;
77214;SDS011;66210;53.282;9.864;2023-04-25T16:42:22;6.93;;;1.40;;
77214;SDS011;66210;53.282;9.864;2023-04-25T16:44:48;9.80;;;1.77;;
77214;SDS011;66210;53.282;9.864;2023-04-25T16:47:15;5.75;;;2.05;;
77214;SDS011;66210;53.282;9.864;2023-04-25T16:49:45;8.23;;;1.42;;
77214;SDS011;66210;53.282;9.864;2023-04-25T16:52:12;7.65;;;1.65;;
77214;SDS011;66210;53.282;9.864;2023-04-25T16:54:40;9.18;;;1.80;;
77214;SDS011;66210;53.282;9.864;2023-04-25T16:57:07;5.78;;;1.80;;
77214;SDS011;66210;53.282;9.864;2023-04-25T16:59:37;8.48;;;1.73;;
77214;SDS011;66210;53.282;9.864;2023-04-25T17:02:04;6.55;;;1.30;;
77214;SDS011;66210;53.282;9.864;2023-04-25T17:04:31;5.00;;;1.10;;
77214;SDS011;66210;53.282;9.864;2023-04-25T17:06:57;4.75;;;1.38;;
77214;SDS011;66210;53.282;9.864;2023-04-25T17:09:24;1.95;;;1.13;;
77214;SDS011;66210;53.282;9.864;2023-04-25T17:11:53;3.97;;;1.40;;
77214;SDS011;66210;53.282;9.864;2023-04-25T17:14:20;4.72;;;1.20;;
77214;SDS011;66210;53.282;9.864;2023-04-25T17:16:47;7.85;;;1.83;;
77214;SDS011;66210;53.282;9.864;2023-04-25T17:19:15;2.83;;;1.50;;
77214;SDS011;66210;53.282;9.864;2023-04-25T17:21:42;4.38;;;1.40;;
77214;SDS011;66210;53.282;9.864;2023-04-25T17:24:09;3.30;;;1.23;;
77214;SDS011;66210;53.282;9.864;2023-04-25T17:26:37;9.20;;;1.50;;
77214;SDS011;66210;53.282;9.864;2023-04-25T17:29:04;8.13;;;1.50;;